sensor_id;sensor_type;location;lat;lon;timestamp;P1;durP1;ratioP1;P2;durP2;ratioP2
3463;SDS011;3551;41.578;24.706;2022-09-12T00:01:14;9.23;;;4.80;;
3463;SDS011;3551;41.578;24.706;2022-09-12T00:03:43;9.00;;;4.90;;
3463;SDS011;3551;41.578;24.706;2022-09-12T00:06:11;13.03;;;5.83;;
3463;SDS011;3551;41.578;24.706;2022-09-12T00:08:41;7.50;;;4.53;;
3463;SDS011;3551;41.578;24.706;2022-09-12T00:11:08;13.90;;;5.73;;
3463;SDS011;3551;41.578;24.706;2022-09-12T00:13:37;11.93;;;5.63;;
3463;SDS011;3551;41.578;24.706;2022-09-12T00:16:04;7.43;;;5.20;;
3463;SDS011;3551;41.578;24.706;2022-09-12T00:18:33;12.70;;;5.30;;
3463;SDS011;3551;41.578;24.706;2022-09-12T00:21:01;9.30;;;5.53;;
3463;SDS011;3551;41.578;24.706;2022-09-12T00:23:30;6.50;;;4.70;;
3463;SDS011;3551;41.578;24.706;2022-09-12T00:25:58;7.90;;;5.40;;
3463;SDS011;3551;41.578;24.706;2022-09-12T00:28:25;6.37;;;4.97;;
3463;SDS011;3551;41.578;24.706;2022-09-12T00:30:52;8.50;;;5.10;;
3463;SDS011;3551;41.578;24.706;2022-09-12T00:33:19;10.90;;;6.23;;
3463;SDS011;3551;41.578;24.706;2022-09-12T00:35:48;9.53;;;5.40;;
3463;SDS011;3551;41.578;24.706;2022-09-12T00:38:17;8.80;;;5.47;;
3463;SDS011;3551;41.578;24.706;2022-09-12T00:40:46;13.20;;;5.47;;
3463;SDS011;3551;41.578;24.706;2022-09-12T00:43:14;8.73;;;5.27;;
3463;SDS011;3551;41.578;24.706;2022-09-12T00:45:59;8.10;;;5.60;;
3463;SDS011;3551;41.578;24.706;2022-09-12T00:48:31;6.93;;;5.13;;
3463;SDS011;3551;41.578;24.706;2022-09-12T00:51:05;7.80;;;5.50;;
3463;SDS011;3551;41.578;24.706;2022-09-12T00:53:32;12.77;;;5.10;;
3463;SDS011;3551;41.578;24.706;2022-09-12T00:55:59;10.67;;;5.77;;
3463;SDS011;3551;41.578;24.706;2022-09-12T00:58:27;6.53;;;4.97;;
3463;SDS011;3551;41.578;24.706;2022-09-12T01:00:58;9.93;;;6.03;;
3463;SDS011;3551;41.578;24.706;2022-09-12T01:03:25;6.67;;;5.50;;
3463;SDS011;3551;41.578;24.706;2022-09-12T01:05:57;11.13;;;5.60;;
3463;SDS011;3551;41.578;24.706;2022-09-12T01:08:31;11.63;;;4.97;;
3463;SDS011;3551;41.578;24.706;2022-09-12T01:10:59;6.70;;;5.10;;
3463;SDS011;3551;41.578;24.706;2022-09-12T01:13:27;8.13;;;5.17;;
3463;SDS011;3551;41.578;24.706;2022-09-12T01:15:54;13.60;;;7.63;;
3463;SDS011;3551;41.578;24.706;2022-09-12T01:18:24;7.50;;;4.97;;
3463;SDS011;3551;41.578;24.706;2022-09-12T01:21:08;6.60;;;4.87;;
3463;SDS011;3551;41.578;24.706;2022-09-12T01:33:12;7.00;;;5.20;;
3463;SDS011;3551;41.578;24.706;2022-09-12T01:35:59;7.30;;;4.30;;
3463;SDS011;3551;41.578;24.706;2022-09-12T01:38:37;8.53;;;4.60;;
3463;SDS011;3551;41.578;24.706;2022-09-12T01:41:10;10.10;;;4.57;;
3463;SDS011;3551;41.578;24.706;2022-09-12T01:43:46;10.20;;;4.53;;
3463;SDS011;3551;41.578;24.706;2022-09-12T01:46:18;7.23;;;3.87;;
3463;SDS011;3551;41.578;24.706;2022-09-12T01:48:51;6.40;;;3.87;;
3463;SDS011;3551;41.578;24.706;2022-09-12T01:51:24;8.17;;;4.40;;
3463;SDS011;3551;41.578;24.706;2022-09-12T01:53:58;5.37;;;3.70;;
3463;SDS011;3551;41.578;24.706;2022-09-12T01:56:32;7.17;;;4.50;;
3463;SDS011;3551;41.578;24.706;2022-09-12T01:59:03;10.60;;;4.17;;
3463;SDS011;3551;41.578;24.706;2022-09-12T02:01:37;4.47;;;3.57;;
3463;SDS011;3551;41.578;24.706;2022-09-12T02:04:10;6.57;;;4.53;;
3463;SDS011;3551;41.578;24.706;2022-09-12T02:06:42;8.80;;;4.60;;
3463;SDS011;3551;41.578;24.706;2022-09-12T02:09:13;7.10;;;4.10;;
3463;SDS011;3551;41.578;24.706;2022-09-12T02:11:47;6.90;;;4.90;;
3463;SDS011;3551;41.578;24.706;2022-09-12T02:14:19;13.03;;;5.03;;
3463;SDS011;3551;41.578;24.706;2022-09-12T02:16:51;7.23;;;3.97;;
3463;SDS011;3551;41.578;24.706;2022-09-12T02:19:22;5.30;;;4.00;;
3463;SDS011;3551;41.578;24.706;2022-09-12T02:21:53;3.90;;;3.27;;
3463;SDS011;3551;41.578;24.706;2022-09-12T02:24:25;6.80;;;3.87;;
3463;SDS011;3551;41.578;24.706;2022-09-12T02:26:56;4.07;;;3.23;;
3463;SDS011;3551;41.578;24.706;2022-09-12T02:29:28;11.67;;;4.77;;
3463;SDS011;3551;41.578;24.706;2022-09-12T02:31:57;4.10;;;3.20;;
3463;SDS011;3551;41.578;24.706;2022-09-12T02:34:30;5.50;;;3.43;;
3463;SDS011;3551;41.578;24.706;2022-09-12T02:37:07;5.30;;;3.80;;
3463;SDS011;3551;41.578;24.706;2022-09-12T02:39:41;5.33;;;3.97;;
3463;SDS011;3551;41.578;24.706;2022-09-12T02:42:09;5.83;;;4.30;;
3463;SDS011;3551;41.578;24.706;2022-09-12T02:44:36;6.37;;;3.87;;
3463;SDS011;3551;41.578;24.706;2022-09-12T02:47:04;8.30;;;4.33;;
3463;SDS011;3551;41.578;24.706;2022-09-12T02:49:35;6.80;;;4.23;;
3463;SDS011;3551;41.578;24.706;2022-09-12T02:52:02;9.03;;;4.40;;
3463;SDS011;3551;41.578;24.706;2022-09-12T02:54:29;8.17;;;3.97;;
3463;SDS011;3551;41.578;24.706;2022-09-12T02:56:57;5.53;;;4.10;;
3463;SDS011;3551;41.578;24.706;2022-09-12T02:59:24;11.30;;;4.27;;
3463;SDS011;3551;41.578;24.706;2022-09-12T03:04:50;8.07;;;3.80;;
3463;SDS011;3551;41.578;24.706;2022-09-12T03:07:29;13.80;;;4.17;;
3463;SDS011;3551;41.578;24.706;2022-09-12T03:10:09;5.40;;;3.80;;
3463;SDS011;3551;41.578;24.706;2022-09-12T03:12:51;7.43;;;4.47;;
3463;SDS011;3551;41.578;24.706;2022-09-12T03:15:29;10.23;;;4.13;;
3463;SDS011;3551;41.578;24.706;2022-09-12T03:18:10;4.50;;;3.50;;
3463;SDS011;3551;41.578;24.706;2022-09-12T03:20:49;7.33;;;4.47;;
3463;SDS011;3551;41.578;24.706;2022-09-12T03:23:25;9.30;;;4.43;;
3463;SDS011;3551;41.578;24.706;2022-09-12T03:25:59;5.33;;;4.00;;
3463;SDS011;3551;41.578;24.706;2022-09-12T03:28:32;6.03;;;4.90;;
3463;SDS011;3551;41.578;24.706;2022-09-12T03:31:02;8.70;;;4.47;;
3463;SDS011;3551;41.578;24.706;2022-09-12T03:33:39;6.07;;;4.50;;
3463;SDS011;3551;41.578;24.706;2022-09-12T03:36:09;13.00;;;5.10;;
3463;SDS011;3551;41.578;24.706;2022-09-12T03:38:41;8.47;;;4.23;;
3463;SDS011;3551;41.578;24.706;2022-09-12T03:41:08;5.90;;;4.10;;
3463;SDS011;3551;41.578;24.706;2022-09-12T03:43:35;6.97;;;4.10;;
3463;SDS011;3551;41.578;24.706;2022-09-12T03:46:02;11.43;;;5.10;;
3463;SDS011;3551;41.578;24.706;2022-09-12T03:48:29;8.03;;;4.10;;
3463;SDS011;3551;41.578;24.706;2022-09-12T03:51:00;13.43;;;4.63;;
3463;SDS011;3551;41.578;24.706;2022-09-12T03:53:27;8.40;;;5.30;;
3463;SDS011;3551;41.578;24.706;2022-09-12T03:55:55;9.67;;;4.80;;
3463;SDS011;3551;41.578;24.706;2022-09-12T03:58:22;8.50;;;5.60;;
3463;SDS011;3551;41.578;24.706;2022-09-12T04:00:49;9.37;;;5.27;;
3463;SDS011;3551;41.578;24.706;2022-09-12T04:03:16;10.53;;;5.20;;
3463;SDS011;3551;41.578;24.706;2022-09-12T04:05:44;13.03;;;5.77;;
3463;SDS011;3551;41.578;24.706;2022-09-12T04:08:13;11.67;;;5.70;;
3463;SDS011;3551;41.578;24.706;2022-09-12T04:10:40;9.03;;;4.77;;
3463;SDS011;3551;41.578;24.706;2022-09-12T04:13:07;8.70;;;4.97;;
3463;SDS011;3551;41.578;24.706;2022-09-12T04:15:34;8.60;;;5.40;;
3463;SDS011;3551;41.578;24.706;2022-09-12T04:18:01;10.37;;;5.10;;
3463;SDS011;3551;41.578;24.706;2022-09-12T04:20:28;8.67;;;4.50;;
3463;SDS011;3551;41.578;24.706;2022-09-12T04:22:55;12.70;;;4.50;;
3463;SDS011;3551;41.578;24.706;2022-09-12T04:25:23;7.63;;;3.87;;
3463;SDS011;3551;41.578;24.706;2022-09-12T04:27:51;8.00;;;4.23;;
3463;SDS011;3551;41.578;24.706;2022-09-12T04:30:18;11.33;;;4.97;;
3463;SDS011;3551;41.578;24.706;2022-09-12T04:32:45;7.77;;;5.10;;
3463;SDS011;3551;41.578;24.706;2022-09-12T04:35:12;7.80;;;4.80;;
3463;SDS011;3551;41.578;24.706;2022-09-12T04:37:39;11.77;;;4.83;;
3463;SDS011;3551;41.578;24.706;2022-09-12T04:40:06;8.77;;;5.13;;
3463;SDS011;3551;41.578;24.706;2022-09-12T04:42:35;6.57;;;4.90;;
3463;SDS011;3551;41.578;24.706;2022-09-12T04:45:02;10.83;;;5.53;;
3463;SDS011;3551;41.578;24.706;2022-09-12T04:47:30;6.90;;;4.80;;
3463;SDS011;3551;41.578;24.706;2022-09-12T04:49:57;9.93;;;5.57;;
3463;SDS011;3551;41.578;24.706;2022-09-12T04:52:24;7.97;;;5.20;;
3463;SDS011;3551;41.578;24.706;2022-09-12T04:54:51;9.53;;;4.40;;
3463;SDS011;3551;41.578;24.706;2022-09-12T04:57:18;7.60;;;5.70;;
3463;SDS011;3551;41.578;24.706;2022-09-12T04:59:46;11.33;;;4.50;;
3463;SDS011;3551;41.578;24.706;2022-09-12T05:02:14;6.60;;;4.43;;
3463;SDS011;3551;41.578;24.706;2022-09-12T05:04:40;5.70;;;3.70;;
3463;SDS011;3551;41.578;24.706;2022-09-12T05:07:07;5.50;;;3.77;;
3463;SDS011;3551;41.578;24.706;2022-09-12T05:09:34;12.10;;;3.73;;
3463;SDS011;3551;41.578;24.706;2022-09-12T05:12:01;9.27;;;4.63;;
3463;SDS011;3551;41.578;24.706;2022-09-12T05:14:30;10.63;;;3.53;;
3463;SDS011;3551;41.578;24.706;2022-09-12T05:16:58;6.87;;;2.80;;
3463;SDS011;3551;41.578;24.706;2022-09-12T05:19:25;6.87;;;3.70;;
3463;SDS011;3551;41.578;24.706;2022-09-12T05:21:56;6.80;;;3.00;;
3463;SDS011;3551;41.578;24.706;2022-09-12T05:24:23;9.07;;;4.00;;
3463;SDS011;3551;41.578;24.706;2022-09-12T05:26:50;8.30;;;3.00;;
3463;SDS011;3551;41.578;24.706;2022-09-12T05:29:17;3.13;;;1.73;;
3463;SDS011;3551;41.578;24.706;2022-09-12T05:31:44;7.03;;;1.83;;
3463;SDS011;3551;41.578;24.706;2022-09-12T05:34:17;3.13;;;1.70;;
3463;SDS011;3551;41.578;24.706;2022-09-12T05:36:45;2.47;;;1.27;;
3463;SDS011;3551;41.578;24.706;2022-09-12T05:39:12;3.43;;;1.40;;
3463;SDS011;3551;41.578;24.706;2022-09-12T05:41:39;5.80;;;3.10;;
3463;SDS011;3551;41.578;24.706;2022-09-12T05:44:09;1.80;;;1.03;;
3463;SDS011;3551;41.578;24.706;2022-09-12T05:46:39;2.10;;;1.10;;
3463;SDS011;3551;41.578;24.706;2022-09-12T05:49:08;2.10;;;1.20;;
3463;SDS011;3551;41.578;24.706;2022-09-12T05:51:39;2.37;;;1.53;;
3463;SDS011;3551;41.578;24.706;2022-09-12T05:54:08;6.80;;;1.40;;
3463;SDS011;3551;41.578;24.706;2022-09-12T05:56:36;3.20;;;1.47;;
3463;SDS011;3551;41.578;24.706;2022-09-12T05:59:05;2.30;;;1.50;;
3463;SDS011;3551;41.578;24.706;2022-09-12T06:01:34;3.07;;;1.10;;
3463;SDS011;3551;41.578;24.706;2022-09-12T06:04:02;2.17;;;1.00;;
3463;SDS011;3551;41.578;24.706;2022-09-12T06:06:31;4.87;;;1.00;;
3463;SDS011;3551;41.578;24.706;2022-09-12T06:09:02;7.60;;;1.37;;
3463;SDS011;3551;41.578;24.706;2022-09-12T06:11:32;8.27;;;3.40;;
3463;SDS011;3551;41.578;24.706;2022-09-12T06:13:59;4.30;;;2.13;;
3463;SDS011;3551;41.578;24.706;2022-09-12T06:16:27;4.03;;;1.70;;
3463;SDS011;3551;41.578;24.706;2022-09-12T06:18:56;3.47;;;1.40;;
3463;SDS011;3551;41.578;24.706;2022-09-12T06:21:24;2.53;;;1.00;;
3463;SDS011;3551;41.578;24.706;2022-09-12T06:23:52;3.03;;;1.20;;
3463;SDS011;3551;41.578;24.706;2022-09-12T06:26:21;3.63;;;1.20;;
3463;SDS011;3551;41.578;24.706;2022-09-12T06:28:50;1.80;;;0.97;;
3463;SDS011;3551;41.578;24.706;2022-09-12T06:31:18;2.10;;;0.93;;
3463;SDS011;3551;41.578;24.706;2022-09-12T06:33:48;1.90;;;1.10;;
3463;SDS011;3551;41.578;24.706;2022-09-12T06:36:16;1.90;;;0.80;;
3463;SDS011;3551;41.578;24.706;2022-09-12T06:38:45;6.53;;;1.20;;
3463;SDS011;3551;41.578;24.706;2022-09-12T06:41:13;3.70;;;0.97;;
3463;SDS011;3551;41.578;24.706;2022-09-12T06:43:42;4.40;;;1.00;;
3463;SDS011;3551;41.578;24.706;2022-09-12T06:46:09;2.03;;;1.20;;
3463;SDS011;3551;41.578;24.706;2022-09-12T06:48:37;3.93;;;1.13;;
3463;SDS011;3551;41.578;24.706;2022-09-12T06:51:05;2.30;;;1.07;;
3463;SDS011;3551;41.578;24.706;2022-09-12T06:53:34;3.50;;;1.10;;
3463;SDS011;3551;41.578;24.706;2022-09-12T06:56:03;2.20;;;1.20;;
3463;SDS011;3551;41.578;24.706;2022-09-12T06:58:31;2.03;;;1.13;;
3463;SDS011;3551;41.578;24.706;2022-09-12T07:01:01;2.70;;;1.53;;
3463;SDS011;3551;41.578;24.706;2022-09-12T07:03:29;1.80;;;0.90;;
3463;SDS011;3551;41.578;24.706;2022-09-12T07:06:02;2.13;;;1.40;;
3463;SDS011;3551;41.578;24.706;2022-09-12T07:08:30;2.73;;;1.20;;
3463;SDS011;3551;41.578;24.706;2022-09-12T07:10:58;2.30;;;1.07;;
3463;SDS011;3551;41.578;24.706;2022-09-12T07:13:25;2.40;;;1.00;;
3463;SDS011;3551;41.578;24.706;2022-09-12T07:15:52;1.90;;;1.00;;
3463;SDS011;3551;41.578;24.706;2022-09-12T07:18:20;3.33;;;0.90;;
3463;SDS011;3551;41.578;24.706;2022-09-12T07:20:47;3.10;;;1.10;;
3463;SDS011;3551;41.578;24.706;2022-09-12T07:23:14;2.93;;;1.00;;
3463;SDS011;3551;41.578;24.706;2022-09-12T07:25:42;2.10;;;0.93;;
3463;SDS011;3551;41.578;24.706;2022-09-12T07:28:09;2.47;;;1.30;;
3463;SDS011;3551;41.578;24.706;2022-09-12T07:30:36;5.73;;;1.10;;
3463;SDS011;3551;41.578;24.706;2022-09-12T07:33:03;1.90;;;0.80;;
3463;SDS011;3551;41.578;24.706;2022-09-12T07:35:33;3.40;;;1.00;;
3463;SDS011;3551;41.578;24.706;2022-09-12T07:38:00;2.20;;;1.20;;
3463;SDS011;3551;41.578;24.706;2022-09-12T07:40:27;2.43;;;1.03;;
3463;SDS011;3551;41.578;24.706;2022-09-12T07:42:54;2.43;;;0.90;;
3463;SDS011;3551;41.578;24.706;2022-09-12T07:45:21;1.80;;;0.90;;
3463;SDS011;3551;41.578;24.706;2022-09-12T07:47:51;6.33;;;1.00;;
3463;SDS011;3551;41.578;24.706;2022-09-12T07:50:19;5.77;;;0.97;;
3463;SDS011;3551;41.578;24.706;2022-09-12T07:52:48;7.60;;;0.90;;
3463;SDS011;3551;41.578;24.706;2022-09-12T07:55:15;2.63;;;1.00;;
3463;SDS011;3551;41.578;24.706;2022-09-12T07:57:42;2.10;;;1.20;;
3463;SDS011;3551;41.578;24.706;2022-09-12T08:00:09;7.17;;;1.00;;
3463;SDS011;3551;41.578;24.706;2022-09-12T08:02:36;2.50;;;0.97;;
3463;SDS011;3551;41.578;24.706;2022-09-12T08:05:04;9.10;;;1.13;;
3463;SDS011;3551;41.578;24.706;2022-09-12T08:07:31;1.80;;;0.90;;
3463;SDS011;3551;41.578;24.706;2022-09-12T08:10:00;3.07;;;1.30;;
3463;SDS011;3551;41.578;24.706;2022-09-12T08:12:27;2.33;;;1.20;;
3463;SDS011;3551;41.578;24.706;2022-09-12T08:14:56;2.00;;;0.80;;
3463;SDS011;3551;41.578;24.706;2022-09-12T08:17:24;3.20;;;1.03;;
3463;SDS011;3551;41.578;24.706;2022-09-12T08:22:52;1.90;;;0.80;;
3463;SDS011;3551;41.578;24.706;2022-09-12T08:25:20;2.43;;;1.10;;
3463;SDS011;3551;41.578;24.706;2022-09-12T08:27:47;4.37;;;1.00;;
3463;SDS011;3551;41.578;24.706;2022-09-12T08:30:14;6.83;;;1.50;;
3463;SDS011;3551;41.578;24.706;2022-09-12T08:32:41;3.50;;;1.20;;
3463;SDS011;3551;41.578;24.706;2022-09-12T08:35:08;2.63;;;1.30;;
3463;SDS011;3551;41.578;24.706;2022-09-12T08:37:36;2.00;;;0.87;;
3463;SDS011;3551;41.578;24.706;2022-09-12T08:40:03;1.80;;;0.90;;
3463;SDS011;3551;41.578;24.706;2022-09-12T08:42:37;1.70;;;0.80;;
3463;SDS011;3551;41.578;24.706;2022-09-12T08:45:18;4.30;;;3.00;;
3463;SDS011;3551;41.578;24.706;2022-09-12T08:47:51;4.33;;;0.87;;
3463;SDS011;3551;41.578;24.706;2022-09-12T08:50:20;2.57;;;1.00;;
3463;SDS011;3551;41.578;24.706;2022-09-12T08:52:52;2.70;;;1.20;;
3463;SDS011;3551;41.578;24.706;2022-09-12T08:55:32;2.53;;;0.90;;
3463;SDS011;3551;41.578;24.706;2022-09-12T08:58:06;2.63;;;1.03;;
3463;SDS011;3551;41.578;24.706;2022-09-12T09:00:40;1.80;;;0.90;;
3463;SDS011;3551;41.578;24.706;2022-09-12T09:06:31;3.40;;;1.53;;
3463;SDS011;3551;41.578;24.706;2022-09-12T09:09:11;3.23;;;1.00;;
3463;SDS011;3551;41.578;24.706;2022-09-12T09:11:49;1.60;;;0.73;;
3463;SDS011;3551;41.578;24.706;2022-09-12T09:14:38;1.90;;;0.80;;
3463;SDS011;3551;41.578;24.706;2022-09-12T09:17:17;1.70;;;0.90;;
3463;SDS011;3551;41.578;24.706;2022-09-12T09:19:50;3.70;;;1.10;;
3463;SDS011;3551;41.578;24.706;2022-09-12T09:22:26;2.10;;;0.90;;
3463;SDS011;3551;41.578;24.706;2022-09-12T09:25:02;3.07;;;1.00;;
3463;SDS011;3551;41.578;24.706;2022-09-12T09:27:35;1.77;;;0.90;;
3463;SDS011;3551;41.578;24.706;2022-09-12T09:30:11;2.83;;;1.30;;
3463;SDS011;3551;41.578;24.706;2022-09-12T09:32:41;3.60;;;0.90;;
3463;SDS011;3551;41.578;24.706;2022-09-12T09:35:11;2.63;;;1.00;;
3463;SDS011;3551;41.578;24.706;2022-09-12T09:37:43;3.13;;;1.20;;
3463;SDS011;3551;41.578;24.706;2022-09-12T09:40:24;3.60;;;1.77;;
3463;SDS011;3551;41.578;24.706;2022-09-12T09:42:56;5.67;;;2.37;;
3463;SDS011;3551;41.578;24.706;2022-09-12T09:45:30;6.73;;;4.40;;
3463;SDS011;3551;41.578;24.706;2022-09-12T09:47:59;8.33;;;5.50;;
3463;SDS011;3551;41.578;24.706;2022-09-12T09:50:43;4.03;;;0.80;;
3463;SDS011;3551;41.578;24.706;2022-09-12T09:53:18;7.40;;;3.37;;
3463;SDS011;3551;41.578;24.706;2022-09-12T09:55:54;2.60;;;1.90;;
3463;SDS011;3551;41.578;24.706;2022-09-12T09:58:28;2.93;;;1.00;;
3463;SDS011;3551;41.578;24.706;2022-09-12T10:01:01;5.60;;;3.10;;
3463;SDS011;3551;41.578;24.706;2022-09-12T10:03:32;8.10;;;4.50;;
3463;SDS011;3551;41.578;24.706;2022-09-12T10:06:01;2.67;;;1.87;;
3463;SDS011;3551;41.578;24.706;2022-09-12T10:08:33;2.70;;;1.67;;
3463;SDS011;3551;41.578;24.706;2022-09-12T10:11:02;5.17;;;2.87;;
3463;SDS011;3551;41.578;24.706;2022-09-12T10:13:37;8.90;;;4.07;;
3463;SDS011;3551;41.578;24.706;2022-09-12T10:16:17;2.10;;;1.00;;
3463;SDS011;3551;41.578;24.706;2022-09-12T10:18:46;4.80;;;2.70;;
3463;SDS011;3551;41.578;24.706;2022-09-12T10:21:24;2.10;;;1.10;;
3463;SDS011;3551;41.578;24.706;2022-09-12T10:24:21;10.23;;;2.90;;
3463;SDS011;3551;41.578;24.706;2022-09-12T10:26:51;2.93;;;1.93;;
3463;SDS011;3551;41.578;24.706;2022-09-12T10:29:21;4.10;;;1.70;;
3463;SDS011;3551;41.578;24.706;2022-09-12T10:31:54;7.63;;;1.10;;
3463;SDS011;3551;41.578;24.706;2022-09-12T10:34:25;3.03;;;1.23;;
3463;SDS011;3551;41.578;24.706;2022-09-12T10:37:01;4.07;;;1.07;;
3463;SDS011;3551;41.578;24.706;2022-09-12T10:39:31;3.20;;;1.40;;
3463;SDS011;3551;41.578;24.706;2022-09-12T10:42:00;12.00;;;6.07;;
3463;SDS011;3551;41.578;24.706;2022-09-12T10:44:29;10.07;;;5.80;;
3463;SDS011;3551;41.578;24.706;2022-09-12T10:46:59;10.97;;;7.33;;
3463;SDS011;3551;41.578;24.706;2022-09-12T10:49:45;6.60;;;4.60;;
3463;SDS011;3551;41.578;24.706;2022-09-12T10:52:16;6.07;;;3.00;;
3463;SDS011;3551;41.578;24.706;2022-09-12T10:54:46;5.37;;;2.50;;
3463;SDS011;3551;41.578;24.706;2022-09-12T10:57:20;3.37;;;1.93;;
3463;SDS011;3551;41.578;24.706;2022-09-12T11:00:16;2.80;;;1.80;;
3463;SDS011;3551;41.578;24.706;2022-09-12T11:02:58;2.93;;;1.33;;
3463;SDS011;3551;41.578;24.706;2022-09-12T11:05:41;2.20;;;0.90;;
3463;SDS011;3551;41.578;24.706;2022-09-12T11:08:26;2.77;;;1.40;;
3463;SDS011;3551;41.578;24.706;2022-09-12T11:11:03;1.90;;;1.10;;
3463;SDS011;3551;41.578;24.706;2022-09-12T11:13:45;1.93;;;1.10;;
3463;SDS011;3551;41.578;24.706;2022-09-12T11:16:22;1.80;;;0.90;;
3463;SDS011;3551;41.578;24.706;2022-09-12T11:19:04;1.90;;;0.90;;
3463;SDS011;3551;41.578;24.706;2022-09-12T11:21:51;1.90;;;1.13;;
3463;SDS011;3551;41.578;24.706;2022-09-12T11:24:36;1.70;;;0.90;;
3463;SDS011;3551;41.578;24.706;2022-09-12T11:27:20;4.60;;;3.07;;
3463;SDS011;3551;41.578;24.706;2022-09-12T11:29:58;9.00;;;6.70;;
3463;SDS011;3551;41.578;24.706;2022-09-12T11:32:36;7.13;;;4.63;;
3463;SDS011;3551;41.578;24.706;2022-09-12T11:35:22;7.77;;;4.50;;
3463;SDS011;3551;41.578;24.706;2022-09-12T11:40:47;3.43;;;2.53;;
3463;SDS011;3551;41.578;24.706;2022-09-12T11:43:21;10.77;;;7.13;;
3463;SDS011;3551;41.578;24.706;2022-09-12T11:45:52;11.17;;;7.73;;
3463;SDS011;3551;41.578;24.706;2022-09-12T11:48:28;9.27;;;4.70;;
3463;SDS011;3551;41.578;24.706;2022-09-12T11:51:05;5.63;;;3.83;;
3463;SDS011;3551;41.578;24.706;2022-09-12T11:53:42;3.77;;;2.40;;
3463;SDS011;3551;41.578;24.706;2022-09-12T11:56:12;2.53;;;1.60;;
3463;SDS011;3551;41.578;24.706;2022-09-12T11:58:43;3.43;;;1.40;;
3463;SDS011;3551;41.578;24.706;2022-09-12T12:01:18;2.87;;;1.90;;
3463;SDS011;3551;41.578;24.706;2022-09-12T12:03:48;3.57;;;1.47;;
3463;SDS011;3551;41.578;24.706;2022-09-12T12:06:22;2.30;;;1.17;;
3463;SDS011;3551;41.578;24.706;2022-09-12T12:08:52;2.27;;;1.50;;
3463;SDS011;3551;41.578;24.706;2022-09-12T12:11:24;4.57;;;1.23;;
3463;SDS011;3551;41.578;24.706;2022-09-12T12:13:56;1.80;;;1.20;;
3463;SDS011;3551;41.578;24.706;2022-09-12T12:16:26;3.03;;;1.63;;
3463;SDS011;3551;41.578;24.706;2022-09-12T12:18:55;2.30;;;1.80;;
3463;SDS011;3551;41.578;24.706;2022-09-12T12:21:33;4.00;;;1.90;;
3463;SDS011;3551;41.578;24.706;2022-09-12T12:27:51;2.93;;;1.63;;
3463;SDS011;3551;41.578;24.706;2022-09-12T12:36:41;2.43;;;1.80;;
3463;SDS011;3551;41.578;24.706;2022-09-12T12:51:36;6.40;;;4.37;;
3463;SDS011;3551;41.578;24.706;2022-09-12T12:54:28;21.27;;;13.73;;
3463;SDS011;3551;41.578;24.706;2022-09-12T12:57:03;15.40;;;10.97;;
3463;SDS011;3551;41.578;24.706;2022-09-12T12:59:47;6.60;;;3.30;;
3463;SDS011;3551;41.578;24.706;2022-09-12T13:02:18;4.77;;;3.80;;
3463;SDS011;3551;41.578;24.706;2022-09-12T13:04:49;4.83;;;3.77;;
3463;SDS011;3551;41.578;24.706;2022-09-12T13:07:32;8.30;;;2.97;;
3463;SDS011;3551;41.578;24.706;2022-09-12T13:10:18;3.10;;;1.97;;
3463;SDS011;3551;41.578;24.706;2022-09-12T13:12:49;7.00;;;4.60;;
3463;SDS011;3551;41.578;24.706;2022-09-12T13:18:15;3.93;;;2.83;;
3463;SDS011;3551;41.578;24.706;2022-09-12T13:20:48;6.37;;;4.87;;
3463;SDS011;3551;41.578;24.706;2022-09-12T13:23:25;7.83;;;5.97;;
3463;SDS011;3551;41.578;24.706;2022-09-12T13:25:54;19.80;;;13.90;;
3463;SDS011;3551;41.578;24.706;2022-09-12T13:28:22;40.53;;;27.50;;
3463;SDS011;3551;41.578;24.706;2022-09-12T13:30:54;17.30;;;12.47;;
3463;SDS011;3551;41.578;24.706;2022-09-12T13:33:29;4.63;;;3.03;;
3463;SDS011;3551;41.578;24.706;2022-09-12T13:36:06;11.93;;;8.03;;
3463;SDS011;3551;41.578;24.706;2022-09-12T13:38:51;9.60;;;6.23;;
3463;SDS011;3551;41.578;24.706;2022-09-12T13:41:36;7.63;;;5.20;;
3463;SDS011;3551;41.578;24.706;2022-09-12T13:44:18;6.80;;;4.80;;
3463;SDS011;3551;41.578;24.706;2022-09-12T13:46:47;4.07;;;3.40;;
3463;SDS011;3551;41.578;24.706;2022-09-12T13:49:17;6.87;;;2.70;;
3463;SDS011;3551;41.578;24.706;2022-09-12T13:51:52;6.57;;;5.20;;
3463;SDS011;3551;41.578;24.706;2022-09-12T13:54:26;5.13;;;2.50;;
3463;SDS011;3551;41.578;24.706;2022-09-12T13:56:54;6.00;;;3.30;;
3463;SDS011;3551;41.578;24.706;2022-09-12T13:59:22;7.33;;;3.43;;
3463;SDS011;3551;41.578;24.706;2022-09-12T14:01:50;7.13;;;3.13;;
3463;SDS011;3551;41.578;24.706;2022-09-12T14:04:17;3.13;;;2.40;;
3463;SDS011;3551;41.578;24.706;2022-09-12T14:07:08;3.30;;;2.80;;
3463;SDS011;3551;41.578;24.706;2022-09-12T14:09:41;3.70;;;2.17;;
3463;SDS011;3551;41.578;24.706;2022-09-12T14:12:18;6.73;;;2.40;;
3463;SDS011;3551;41.578;24.706;2022-09-12T14:14:50;3.73;;;2.87;;
3463;SDS011;3551;41.578;24.706;2022-09-12T14:17:22;3.60;;;2.50;;
3463;SDS011;3551;41.578;24.706;2022-09-12T14:19:53;2.50;;;2.20;;
3463;SDS011;3551;41.578;24.706;2022-09-12T14:22:25;3.03;;;2.13;;
3463;SDS011;3551;41.578;24.706;2022-09-12T14:25:00;3.13;;;2.00;;
3463;SDS011;3551;41.578;24.706;2022-09-12T14:27:30;3.63;;;1.97;;
3463;SDS011;3551;41.578;24.706;2022-09-12T14:30:05;3.40;;;2.37;;
3463;SDS011;3551;41.578;24.706;2022-09-12T14:33:01;2.83;;;2.50;;
3463;SDS011;3551;41.578;24.706;2022-09-12T14:35:29;4.30;;;1.90;;
3463;SDS011;3551;41.578;24.706;2022-09-12T14:38:04;2.47;;;1.70;;
3463;SDS011;3551;41.578;24.706;2022-09-12T14:40:40;2.50;;;1.97;;
3463;SDS011;3551;41.578;24.706;2022-09-12T14:43:15;2.40;;;1.87;;
3463;SDS011;3551;41.578;24.706;2022-09-12T14:45:50;2.70;;;2.03;;
3463;SDS011;3551;41.578;24.706;2022-09-12T14:48:19;3.90;;;2.10;;
3463;SDS011;3551;41.578;24.706;2022-09-12T14:50:50;3.70;;;2.00;;
3463;SDS011;3551;41.578;24.706;2022-09-12T14:53:30;2.80;;;2.20;;
3463;SDS011;3551;41.578;24.706;2022-09-12T14:56:04;3.83;;;2.30;;
3463;SDS011;3551;41.578;24.706;2022-09-12T14:58:33;2.23;;;1.87;;
3463;SDS011;3551;41.578;24.706;2022-09-12T15:01:01;3.47;;;2.00;;
3463;SDS011;3551;41.578;24.706;2022-09-12T15:03:48;9.43;;;2.30;;
3463;SDS011;3551;41.578;24.706;2022-09-12T15:06:19;3.13;;;2.07;;
3463;SDS011;3551;41.578;24.706;2022-09-12T15:08:48;3.50;;;2.00;;
3463;SDS011;3551;41.578;24.706;2022-09-12T15:11:19;4.10;;;2.17;;
3463;SDS011;3551;41.578;24.706;2022-09-12T15:13:46;2.57;;;1.80;;
3463;SDS011;3551;41.578;24.706;2022-09-12T15:16:14;2.33;;;1.67;;
3463;SDS011;3551;41.578;24.706;2022-09-12T15:18:41;2.70;;;2.23;;
3463;SDS011;3551;41.578;24.706;2022-09-12T15:21:10;2.60;;;1.97;;
3463;SDS011;3551;41.578;24.706;2022-09-12T15:23:40;3.57;;;2.40;;
3463;SDS011;3551;41.578;24.706;2022-09-12T15:26:10;2.50;;;2.00;;
3463;SDS011;3551;41.578;24.706;2022-09-12T15:28:41;6.23;;;4.70;;
3463;SDS011;3551;41.578;24.706;2022-09-12T15:31:11;4.27;;;3.17;;
3463;SDS011;3551;41.578;24.706;2022-09-12T15:33:45;4.47;;;2.60;;
3463;SDS011;3551;41.578;24.706;2022-09-12T15:36:13;6.47;;;3.40;;
3463;SDS011;3551;41.578;24.706;2022-09-12T15:38:42;3.00;;;2.13;;
3463;SDS011;3551;41.578;24.706;2022-09-12T15:41:10;4.23;;;2.50;;
3463;SDS011;3551;41.578;24.706;2022-09-12T15:43:42;4.73;;;2.63;;
3463;SDS011;3551;41.578;24.706;2022-09-12T15:46:10;3.20;;;2.47;;
3463;SDS011;3551;41.578;24.706;2022-09-12T15:48:37;2.80;;;2.50;;
3463;SDS011;3551;41.578;24.706;2022-09-12T15:51:04;3.60;;;2.30;;
3463;SDS011;3551;41.578;24.706;2022-09-12T15:53:32;5.30;;;2.40;;
3463;SDS011;3551;41.578;24.706;2022-09-12T15:55:59;6.27;;;3.40;;
3463;SDS011;3551;41.578;24.706;2022-09-12T15:58:27;4.00;;;2.53;;
3463;SDS011;3551;41.578;24.706;2022-09-12T16:00:55;3.83;;;2.70;;
3463;SDS011;3551;41.578;24.706;2022-09-12T16:03:26;4.77;;;2.60;;
3463;SDS011;3551;41.578;24.706;2022-09-12T16:05:54;3.00;;;2.50;;
3463;SDS011;3551;41.578;24.706;2022-09-12T16:08:23;8.20;;;2.90;;
3463;SDS011;3551;41.578;24.706;2022-09-12T16:10:51;4.83;;;2.87;;
3463;SDS011;3551;41.578;24.706;2022-09-12T16:13:20;4.47;;;3.43;;